sensor_id;sensor_type;location;lat;lon;timestamp;temperature;humidity
66722;SHT31;53633;49.932;10.884;2023-02-03T00:01:21;5.37;96.05
66722;SHT31;53633;49.932;10.884;2023-02-03T00:03:47;5.44;95.87
66722;SHT31;53633;49.932;10.884;2023-02-03T00:06:14;5.40;96.13
66722;SHT31;53633;49.932;10.884;2023-02-03T00:08:41;5.40;96.15
66722;SHT31;53633;49.932;10.884;2023-02-03T00:11:08;5.42;96.11
66722;SHT31;53633;49.932;10.884;2023-02-03T00:13:36;5.45;96.13
66722;SHT31;53633;49.932;10.884;2023-02-03T00:16:03;5.48;96.05
66722;SHT31;53633;49.932;10.884;2023-02-03T00:18:29;5.47;95.96
66722;SHT31;53633;49.932;10.884;2023-02-03T00:20:56;5.38;96.20
66722;SHT31;53633;49.932;10.884;2023-02-03T00:23:23;5.51;95.98
66722;SHT31;53633;49.932;10.884;2023-02-03T00:25:50;5.48;96.00
66722;SHT31;53633;49.932;10.884;2023-02-03T00:28:17;5.45;96.01
66722;SHT31;53633;49.932;10.884;2023-02-03T00:30:45;5.45;96.19
66722;SHT31;53633;49.932;10.884;2023-02-03T00:33:12;5.45;96.19
66722;SHT31;53633;49.932;10.884;2023-02-03T00:35:39;5.42;96.41
66722;SHT31;53633;49.932;10.884;2023-02-03T00:38:05;5.47;96.50
66722;SHT31;53633;49.932;10.884;2023-02-03T00:40:32;5.49;96.37
66722;SHT31;53633;49.932;10.884;2023-02-03T00:42:59;5.59;96.17
66722;SHT31;53633;49.932;10.884;2023-02-03T00:45:25;5.52;96.30
66722;SHT31;53633;49.932;10.884;2023-02-03T00:47:53;5.54;96.30
66722;SHT31;53633;49.932;10.884;2023-02-03T00:50:20;5.54;96.27
66722;SHT31;53633;49.932;10.884;2023-02-03T00:52:47;5.52;96.37
66722;SHT31;53633;49.932;10.884;2023-02-03T00:55:14;5.54;96.52
66722;SHT31;53633;49.932;10.884;2023-02-03T00:57:40;5.49;96.60
66722;SHT31;53633;49.932;10.884;2023-02-03T01:00:08;5.51;96.62
66722;SHT31;53633;49.932;10.884;2023-02-03T01:02:35;5.54;96.69
66722;SHT31;53633;49.932;10.884;2023-02-03T01:05:03;5.51;96.69
66722;SHT31;53633;49.932;10.884;2023-02-03T01:07:31;5.60;96.52
66722;SHT31;53633;49.932;10.884;2023-02-03T01:09:58;5.63;96.53
66722;SHT31;53633;49.932;10.884;2023-02-03T01:12:24;5.69;96.33
66722;SHT31;53633;49.932;10.884;2023-02-03T01:14:51;5.60;96.51
66722;SHT31;53633;49.932;10.884;2023-02-03T01:17:18;5.65;96.42
66722;SHT31;53633;49.932;10.884;2023-02-03T01:19:44;5.66;96.35
66722;SHT31;53633;49.932;10.884;2023-02-03T01:22:12;5.59;96.44
66722;SHT31;53633;49.932;10.884;2023-02-03T01:24:39;5.70;96.26
66722;SHT31;53633;49.932;10.884;2023-02-03T01:27:06;5.59;96.42
66722;SHT31;53633;49.932;10.884;2023-02-03T01:29:32;5.63;96.33
66722;SHT31;53633;49.932;10.884;2023-02-03T01:32:00;5.62;96.61
66722;SHT31;53633;49.932;10.884;2023-02-03T01:34:26;5.62;96.47
66722;SHT31;53633;49.932;10.884;2023-02-03T01:36:53;5.65;96.36
66722;SHT31;53633;49.932;10.884;2023-02-03T01:39:21;5.66;96.35
66722;SHT31;53633;49.932;10.884;2023-02-03T01:41:48;5.69;96.03
66722;SHT31;53633;49.932;10.884;2023-02-03T01:44:35;5.72;96.09
66722;SHT31;53633;49.932;10.884;2023-02-03T01:47:09;5.62;96.37
66722;SHT31;53633;49.932;10.884;2023-02-03T01:49:38;5.72;95.89
66722;SHT31;53633;49.932;10.884;2023-02-03T01:52:07;5.73;95.98
66722;SHT31;53633;49.932;10.884;2023-02-03T01:54:38;5.80;95.64
66722;SHT31;53633;49.932;10.884;2023-02-03T01:57:15;5.78;95.63
66722;SHT31;53633;49.932;10.884;2023-02-03T01:59:42;5.75;95.71
66722;SHT31;53633;49.932;10.884;2023-02-03T02:02:10;5.76;95.61
66722;SHT31;53633;49.932;10.884;2023-02-03T02:04:45;5.82;95.59
66722;SHT31;53633;49.932;10.884;2023-02-03T02:07:14;5.82;95.65
66722;SHT31;53633;49.932;10.884;2023-02-03T02:09:43;5.82;95.43
66722;SHT31;53633;49.932;10.884;2023-02-03T02:12:11;5.83;95.49
66722;SHT31;53633;49.932;10.884;2023-02-03T02:14:38;5.72;95.66
66722;SHT31;53633;49.932;10.884;2023-02-03T02:17:11;5.79;95.45
66722;SHT31;53633;49.932;10.884;2023-02-03T02:20:05;5.83;95.25
66722;SHT31;53633;49.932;10.884;2023-02-03T02:22:43;5.86;95.10
66722;SHT31;53633;49.932;10.884;2023-02-03T02:25:47;5.79;95.14
66722;SHT31;53633;49.932;10.884;2023-02-03T02:28:39;5.89;95.00
66722;SHT31;53633;49.932;10.884;2023-02-03T02:34:21;5.87;94.72
66722;SHT31;53633;49.932;10.884;2023-02-03T02:36:58;5.85;94.97
66722;SHT31;53633;49.932;10.884;2023-02-03T02:39:33;5.87;94.88
66722;SHT31;53633;49.932;10.884;2023-02-03T02:42:06;5.89;94.85
66722;SHT31;53633;49.932;10.884;2023-02-03T02:44:38;5.95;94.75
66722;SHT31;53633;49.932;10.884;2023-02-03T02:47:11;5.87;94.82
66722;SHT31;53633;49.932;10.884;2023-02-03T02:49:47;5.76;95.22
66722;SHT31;53633;49.932;10.884;2023-02-03T02:52:17;5.82;95.27
66722;SHT31;53633;49.932;10.884;2023-02-03T02:54:48;5.83;95.20
66722;SHT31;53633;49.932;10.884;2023-02-03T02:57:17;5.83;95.29
66722;SHT31;53633;49.932;10.884;2023-02-03T02:59:46;5.85;95.26
66722;SHT31;53633;49.932;10.884;2023-02-03T03:02:13;5.83;95.20
66722;SHT31;53633;49.932;10.884;2023-02-03T03:04:41;5.85;95.20
66722;SHT31;53633;49.932;10.884;2023-02-03T03:07:13;5.80;95.41
66722;SHT31;53633;49.932;10.884;2023-02-03T03:09:45;5.85;95.24
66722;SHT31;53633;49.932;10.884;2023-02-03T03:12:15;5.86;95.14
66722;SHT31;53633;49.932;10.884;2023-02-03T03:14:47;5.85;95.09
66722;SHT31;53633;49.932;10.884;2023-02-03T03:17:17;5.86;95.00
66722;SHT31;53633;49.932;10.884;2023-02-03T03:19:51;5.82;95.26
66722;SHT31;53633;49.932;10.884;2023-02-03T03:22:23;5.80;95.29
66722;SHT31;53633;49.932;10.884;2023-02-03T03:24:54;5.86;95.26
66722;SHT31;53633;49.932;10.884;2023-02-03T03:27:27;5.85;95.20
66722;SHT31;53633;49.932;10.884;2023-02-03T03:29:57;5.92;95.05
66722;SHT31;53633;49.932;10.884;2023-02-03T03:32:25;5.92;94.93
66722;SHT31;53633;49.932;10.884;2023-02-03T03:34:53;5.85;95.02
66722;SHT31;53633;49.932;10.884;2023-02-03T03:37:29;5.87;94.96
66722;SHT31;53633;49.932;10.884;2023-02-03T03:39:59;5.87;95.03
66722;SHT31;53633;49.932;10.884;2023-02-03T03:42:28;5.96;94.68
66722;SHT31;53633;49.932;10.884;2023-02-03T03:45:02;5.99;94.47
66722;SHT31;53633;49.932;10.884;2023-02-03T03:47:34;5.95;94.41
66722;SHT31;53633;49.932;10.884;2023-02-03T03:50:05;5.89;94.58
66722;SHT31;53633;49.932;10.884;2023-02-03T03:52:35;5.83;94.81
66722;SHT31;53633;49.932;10.884;2023-02-03T03:55:06;5.90;94.35
66722;SHT31;53633;49.932;10.884;2023-02-03T03:57:37;5.93;94.26
66722;SHT31;53633;49.932;10.884;2023-02-03T04:00:08;5.95;94.30
66722;SHT31;53633;49.932;10.884;2023-02-03T04:02:38;5.86;94.59
66722;SHT31;53633;49.932;10.884;2023-02-03T04:05:06;5.95;94.52
66722;SHT31;53633;49.932;10.884;2023-02-03T04:07:40;5.96;94.34
66722;SHT31;53633;49.932;10.884;2023-02-03T04:10:15;5.90;94.63
66722;SHT31;53633;49.932;10.884;2023-02-03T04:12:42;5.97;94.40
66722;SHT31;53633;49.932;10.884;2023-02-03T04:15:08;5.95;94.62
66722;SHT31;53633;49.932;10.884;2023-02-03T04:17:35;5.96;94.50
66722;SHT31;53633;49.932;10.884;2023-02-03T04:20:02;6.02;94.42
66722;SHT31;53633;49.932;10.884;2023-02-03T04:22:29;5.96;94.54
66722;SHT31;53633;49.932;10.884;2023-02-03T04:24:57;5.97;94.61
66722;SHT31;53633;49.932;10.884;2023-02-03T04:27:23;5.87;95.07
66722;SHT31;53633;49.932;10.884;2023-02-03T04:29:50;5.93;94.79
66722;SHT31;53633;49.932;10.884;2023-02-03T04:32:17;6.00;94.69
66722;SHT31;53633;49.932;10.884;2023-02-03T04:34:44;5.93;94.87
66722;SHT31;53633;49.932;10.884;2023-02-03T04:37:10;6.02;94.72
66722;SHT31;53633;49.932;10.884;2023-02-03T04:39:37;5.95;94.96
66722;SHT31;53633;49.932;10.884;2023-02-03T04:42:05;5.96;94.96
66722;SHT31;53633;49.932;10.884;2023-02-03T04:44:32;5.93;95.05
66722;SHT31;53633;49.932;10.884;2023-02-03T04:46:59;5.96;95.10
66722;SHT31;53633;49.932;10.884;2023-02-03T04:49:25;5.92;95.19
66722;SHT31;53633;49.932;10.884;2023-02-03T04:51:52;5.89;95.29
66722;SHT31;53633;49.932;10.884;2023-02-03T04:54:19;5.89;95.27
66722;SHT31;53633;49.932;10.884;2023-02-03T04:56:45;5.89;95.27
66722;SHT31;53633;49.932;10.884;2023-02-03T04:59:14;5.96;95.07
66722;SHT31;53633;49.932;10.884;2023-02-03T05:01:40;5.87;95.35
66722;SHT31;53633;49.932;10.884;2023-02-03T05:04:07;5.95;95.40
66722;SHT31;53633;49.932;10.884;2023-02-03T05:06:34;5.99;95.24
66722;SHT31;53633;49.932;10.884;2023-02-03T05:09:00;5.92;95.44
66722;SHT31;53633;49.932;10.884;2023-02-03T05:11:27;5.93;95.51
66722;SHT31;53633;49.932;10.884;2023-02-03T05:13:54;5.99;95.46
66722;SHT31;53633;49.932;10.884;2023-02-03T05:16:23;6.00;95.39
66722;SHT31;53633;49.932;10.884;2023-02-03T05:18:49;6.02;95.19
66722;SHT31;53633;49.932;10.884;2023-02-03T05:21:16;6.03;95.33
66722;SHT31;53633;49.932;10.884;2023-02-03T05:23:43;5.99;95.26
66722;SHT31;53633;49.932;10.884;2023-02-03T05:26:10;5.92;95.53
66722;SHT31;53633;49.932;10.884;2023-02-03T05:28:37;5.96;95.42
66722;SHT31;53633;49.932;10.884;2023-02-03T05:31:04;5.96;95.17
66722;SHT31;53633;49.932;10.884;2023-02-03T05:33:32;5.96;94.92
66722;SHT31;53633;49.932;10.884;2023-02-03T05:35:59;5.93;95.28
66722;SHT31;53633;49.932;10.884;2023-02-03T05:38:26;5.93;95.15
66722;SHT31;53633;49.932;10.884;2023-02-03T05:40:52;5.90;95.35
66722;SHT31;53633;49.932;10.884;2023-02-03T05:43:19;5.93;95.30
66722;SHT31;53633;49.932;10.884;2023-02-03T05:45:46;5.92;95.36
66722;SHT31;53633;49.932;10.884;2023-02-03T05:48:13;5.97;95.03
66722;SHT31;53633;49.932;10.884;2023-02-03T05:50:41;5.92;95.26
66722;SHT31;53633;49.932;10.884;2023-02-03T05:53:08;5.92;95.38
66722;SHT31;53633;49.932;10.884;2023-02-03T05:55:35;5.95;95.23
66722;SHT31;53633;49.932;10.884;2023-02-03T05:58:02;5.96;95.30
66722;SHT31;53633;49.932;10.884;2023-02-03T06:00:29;6.02;95.09
66722;SHT31;53633;49.932;10.884;2023-02-03T06:02:57;5.96;95.25
66722;SHT31;53633;49.932;10.884;2023-02-03T06:05:25;5.96;95.30
66722;SHT31;53633;49.932;10.884;2023-02-03T06:07:53;6.00;95.14
66722;SHT31;53633;49.932;10.884;2023-02-03T06:10:20;6.03;95.03
66722;SHT31;53633;49.932;10.884;2023-02-03T06:12:47;6.02;95.19
66722;SHT31;53633;49.932;10.884;2023-02-03T06:15:14;5.99;95.15
66722;SHT31;53633;49.932;10.884;2023-02-03T06:17:43;5.99;95.10
66722;SHT31;53633;49.932;10.884;2023-02-03T06:20:12;6.07;94.88
66722;SHT31;53633;49.932;10.884;2023-02-03T06:22:38;6.14;94.78
66722;SHT31;53633;49.932;10.884;2023-02-03T06:25:07;6.10;94.89
66722;SHT31;53633;49.932;10.884;2023-02-03T06:27:38;6.13;94.51
66722;SHT31;53633;49.932;10.884;2023-02-03T06:30:05;6.09;94.56
66722;SHT31;53633;49.932;10.884;2023-02-03T06:32:32;6.09;94.57
66722;SHT31;53633;49.932;10.884;2023-02-03T06:34:59;6.11;94.38
66722;SHT31;53633;49.932;10.884;2023-02-03T06:37:25;6.07;94.61
66722;SHT31;53633;49.932;10.884;2023-02-03T06:39:52;6.06;94.73
66722;SHT31;53633;49.932;10.884;2023-02-03T06:42:20;6.07;94.73
66722;SHT31;53633;49.932;10.884;2023-02-03T06:44:47;6.07;94.54
66722;SHT31;53633;49.932;10.884;2023-02-03T06:47:13;6.11;94.58
66722;SHT31;53633;49.932;10.884;2023-02-03T06:49:40;6.16;94.43
66722;SHT31;53633;49.932;10.884;2023-02-03T06:52:07;6.13;94.48
66722;SHT31;53633;49.932;10.884;2023-02-03T06:54:33;6.18;94.20
66722;SHT31;53633;49.932;10.884;2023-02-03T06:57:00;6.17;94.18
66722;SHT31;53633;49.932;10.884;2023-02-03T06:59:28;6.11;94.26
66722;SHT31;53633;49.932;10.884;2023-02-03T07:01:55;6.18;93.86
66722;SHT31;53633;49.932;10.884;2023-02-03T07:04:22;6.17;94.10
66722;SHT31;53633;49.932;10.884;2023-02-03T07:06:48;6.20;94.02
66722;SHT31;53633;49.932;10.884;2023-02-03T07:09:15;6.23;93.68
66722;SHT31;53633;49.932;10.884;2023-02-03T07:11:42;6.30;93.69
66722;SHT31;53633;49.932;10.884;2023-02-03T07:14:08;6.21;93.84
66722;SHT31;53633;49.932;10.884;2023-02-03T07:16:36;6.17;94.11
66722;SHT31;53633;49.932;10.884;2023-02-03T07:19:04;6.20;94.11
66722;SHT31;53633;49.932;10.884;2023-02-03T07:21:31;6.24;93.70
66722;SHT31;53633;49.932;10.884;2023-02-03T07:23:58;6.27;93.52
66722;SHT31;53633;49.932;10.884;2023-02-03T07:26:24;6.28;93.35
66722;SHT31;53633;49.932;10.884;2023-02-03T07:28:51;6.28;93.32
66722;SHT31;53633;49.932;10.884;2023-02-03T07:31:18;6.30;93.54
66722;SHT31;53633;49.932;10.884;2023-02-03T07:33:46;6.28;93.34
66722;SHT31;53633;49.932;10.884;2023-02-03T07:36:12;6.24;93.59
66722;SHT31;53633;49.932;10.884;2023-02-03T07:38:39;6.24;93.30
66722;SHT31;53633;49.932;10.884;2023-02-03T07:41:06;6.30;93.14
66722;SHT31;53633;49.932;10.884;2023-02-03T07:43:33;6.30;93.26
66722;SHT31;53633;49.932;10.884;2023-02-03T07:45:59;6.30;93.24
66722;SHT31;53633;49.932;10.884;2023-02-03T07:48:26;6.31;93.14
66722;SHT31;53633;49.932;10.884;2023-02-03T07:50:54;6.31;93.35
66722;SHT31;53633;49.932;10.884;2023-02-03T07:53:21;6.31;93.16
66722;SHT31;53633;49.932;10.884;2023-02-03T07:55:47;6.25;93.32
66722;SHT31;53633;49.932;10.884;2023-02-03T07:58:14;6.35;93.09
66722;SHT31;53633;49.932;10.884;2023-02-03T08:00:41;6.35;93.15
66722;SHT31;53633;49.932;10.884;2023-02-03T08:03:08;6.35;92.91
66722;SHT31;53633;49.932;10.884;2023-02-03T08:05:35;6.42;92.86
66722;SHT31;53633;49.932;10.884;2023-02-03T08:08:03;6.40;92.80
66722;SHT31;53633;49.932;10.884;2023-02-03T08:10:30;6.44;92.70
66722;SHT31;53633;49.932;10.884;2023-02-03T08:12:57;6.42;92.52
66722;SHT31;53633;49.932;10.884;2023-02-03T08:15:23;6.42;92.27
66722;SHT31;53633;49.932;10.884;2023-02-03T08:17:50;6.40;92.43
66722;SHT31;53633;49.932;10.884;2023-02-03T08:20:17;6.38;92.63
66722;SHT31;53633;49.932;10.884;2023-02-03T08:22:44;6.38;92.69
66722;SHT31;53633;49.932;10.884;2023-02-03T08:25:12;6.44;92.34
66722;SHT31;53633;49.932;10.884;2023-02-03T08:27:40;6.45;92.03
66722;SHT31;53633;49.932;10.884;2023-02-03T08:30:10;6.44;92.25
66722;SHT31;53633;49.932;10.884;2023-02-03T08:32:38;6.45;92.20
66722;SHT31;53633;49.932;10.884;2023-02-03T08:35:07;6.48;91.68
66722;SHT31;53633;49.932;10.884;2023-02-03T08:37:33;6.51;91.57
66722;SHT31;53633;49.932;10.884;2023-02-03T08:40:00;6.46;91.65
66722;SHT31;53633;49.932;10.884;2023-02-03T08:42:29;6.54;91.24
66722;SHT31;53633;49.932;10.884;2023-02-03T08:44:56;6.56;91.09
66722;SHT31;53633;49.932;10.884;2023-02-03T08:47:22;6.56;91.15
66722;SHT31;53633;49.932;10.884;2023-02-03T08:49:49;6.59;91.21
66722;SHT31;53633;49.932;10.884;2023-02-03T08:52:16;6.58;91.26
66722;SHT31;53633;49.932;10.884;2023-02-03T08:54:45;6.56;91.26
66722;SHT31;53633;49.932;10.884;2023-02-03T08:57:12;6.67;91.12
66722;SHT31;53633;49.932;10.884;2023-02-03T08:59:41;6.68;90.69
66722;SHT31;53633;49.932;10.884;2023-02-03T09:02:13;6.62;90.82
66722;SHT31;53633;49.932;10.884;2023-02-03T09:04:40;6.69;90.85
66722;SHT31;53633;49.932;10.884;2023-02-03T09:07:07;6.64;90.97
66722;SHT31;53633;49.932;10.884;2023-02-03T09:09:34;6.64;91.08
66722;SHT31;53633;49.932;10.884;2023-02-03T09:12:00;6.65;90.99
66722;SHT31;53633;49.932;10.884;2023-02-03T09:14:28;6.72;90.89
66722;SHT31;53633;49.932;10.884;2023-02-03T09:16:56;6.73;90.79
66722;SHT31;53633;49.932;10.884;2023-02-03T09:19:23;6.73;90.70
66722;SHT31;53633;49.932;10.884;2023-02-03T09:21:50;6.75;90.70
66722;SHT31;53633;49.932;10.884;2023-02-03T09:24:17;6.76;90.38
66722;SHT31;53633;49.932;10.884;2023-02-03T09:26:44;6.76;90.55
66722;SHT31;53633;49.932;10.884;2023-02-03T09:29:11;6.82;90.45
66722;SHT31;53633;49.932;10.884;2023-02-03T09:31:37;6.76;90.42
66722;SHT31;53633;49.932;10.884;2023-02-03T09:34:06;6.79;90.45
66722;SHT31;53633;49.932;10.884;2023-02-03T09:36:32;6.81;90.46
66722;SHT31;53633;49.932;10.884;2023-02-03T09:38:59;6.85;90.48
66722;SHT31;53633;49.932;10.884;2023-02-03T09:41:39;6.83;90.58
66722;SHT31;53633;49.932;10.884;2023-02-03T09:44:14;6.88;90.39
66722;SHT31;53633;49.932;10.884;2023-02-03T09:46:46;6.88;90.60
66722;SHT31;53633;49.932;10.884;2023-02-03T09:49:20;6.85;90.39
66722;SHT31;53633;49.932;10.884;2023-02-03T09:51:50;6.82;90.55
66722;SHT31;53633;49.932;10.884;2023-02-03T09:54:22;6.82;90.65
66722;SHT31;53633;49.932;10.884;2023-02-03T09:56:51;6.83;90.39
66722;SHT31;53633;49.932;10.884;2023-02-03T09:59:18;6.89;90.60
66722;SHT31;53633;49.932;10.884;2023-02-03T10:01:51;6.83;90.62
66722;SHT31;53633;49.932;10.884;2023-02-03T10:04:27;6.81;90.51
66722;SHT31;53633;49.932;10.884;2023-02-03T10:07:03;6.88;90.09
66722;SHT31;53633;49.932;10.884;2023-02-03T10:09:49;6.90;89.88
66722;SHT31;53633;49.932;10.884;2023-02-03T10:15:36;6.96;89.35
66722;SHT31;53633;49.932;10.884;2023-02-03T10:18:05;6.97;89.47
66722;SHT31;53633;49.932;10.884;2023-02-03T10:20:37;7.06;89.26
66722;SHT31;53633;49.932;10.884;2023-02-03T10:23:10;7.00;89.06
66722;SHT31;53633;49.932;10.884;2023-02-03T10:25:40;7.01;89.00
66722;SHT31;53633;49.932;10.884;2023-02-03T10:28:14;7.01;89.60
66722;SHT31;53633;49.932;10.884;2023-02-03T10:30:45;7.01;89.48
66722;SHT31;53633;49.932;10.884;2023-02-03T10:33:15;7.01;89.50
66722;SHT31;53633;49.932;10.884;2023-02-03T10:35:49;7.03;89.40
66722;SHT31;53633;49.932;10.884;2023-02-03T10:38:23;7.16;88.60
66722;SHT31;53633;49.932;10.884;2023-02-03T10:40:52;7.09;88.98
66722;SHT31;53633;49.932;10.884;2023-02-03T10:43:19;7.14;88.59
66722;SHT31;53633;49.932;10.884;2023-02-03T10:45:46;7.17;88.66
66722;SHT31;53633;49.932;10.884;2023-02-03T10:48:16;7.21;88.67
66722;SHT31;53633;49.932;10.884;2023-02-03T10:50:48;7.17;88.66
66722;SHT31;53633;49.932;10.884;2023-02-03T10:53:21;7.21;88.61
66722;SHT31;53633;49.932;10.884;2023-02-03T10:55:49;7.21;88.21
66722;SHT31;53633;49.932;10.884;2023-02-03T10:58:24;7.28;88.23
66722;SHT31;53633;49.932;10.884;2023-02-03T11:00:54;7.23;88.46
66722;SHT31;53633;49.932;10.884;2023-02-03T11:03:24;7.27;88.30
66722;SHT31;53633;49.932;10.884;2023-02-03T11:06:09;7.32;88.08
66722;SHT31;53633;49.932;10.884;2023-02-03T11:08:37;7.27;88.34
66722;SHT31;53633;49.932;10.884;2023-02-03T11:11:06;7.30;88.32
66722;SHT31;53633;49.932;10.884;2023-02-03T11:13:35;7.35;87.89
66722;SHT31;53633;49.932;10.884;2023-02-03T11:16:03;7.40;87.48
66722;SHT31;53633;49.932;10.884;2023-02-03T11:18:46;7.38;87.41
66722;SHT31;53633;49.932;10.884;2023-02-03T11:21:19;7.41;87.44
66722;SHT31;53633;49.932;10.884;2023-02-03T11:23:52;7.41;86.92
66722;SHT31;53633;49.932;10.884;2023-02-03T11:26:23;7.50;86.51
66722;SHT31;53633;49.932;10.884;2023-02-03T11:28:53;7.48;86.60
66722;SHT31;53633;49.932;10.884;2023-02-03T11:31:23;7.52;86.46
66722;SHT31;53633;49.932;10.884;2023-02-03T11:33:57;7.54;86.35
66722;SHT31;53633;49.932;10.884;2023-02-03T11:36:28;7.54;86.21
66722;SHT31;53633;49.932;10.884;2023-02-03T11:39:09;7.51;86.32
66722;SHT31;53633;49.932;10.884;2023-02-03T11:41:37;7.50;86.42
66722;SHT31;53633;49.932;10.884;2023-02-03T11:44:10;7.58;85.94
66722;SHT31;53633;49.932;10.884;2023-02-03T11:46:38;7.52;86.04
66722;SHT31;53633;49.932;10.884;2023-02-03T11:49:15;7.58;86.01
66722;SHT31;53633;49.932;10.884;2023-02-03T11:51:52;7.55;86.14
66722;SHT31;53633;49.932;10.884;2023-02-03T11:54:27;7.59;86.07
66722;SHT31;53633;49.932;10.884;2023-02-03T11:57:11;7.59;86.16
66722;SHT31;53633;49.932;10.884;2023-02-03T11:59:54;7.58;86.28
66722;SHT31;53633;49.932;10.884;2023-02-03T12:02:51;7.54;86.31
66722;SHT31;53633;49.932;10.884;2023-02-03T12:05:35;7.55;86.49
66722;SHT31;53633;49.932;10.884;2023-02-03T12:08:23;7.57;86.38
66722;SHT31;53633;49.932;10.884;2023-02-03T12:11:02;7.58;86.37
66722;SHT31;53633;49.932;10.884;2023-02-03T12:13:48;7.57;86.51
66722;SHT31;53633;49.932;10.884;2023-02-03T12:16:39;7.59;86.22
66722;SHT31;53633;49.932;10.884;2023-02-03T12:19:13;7.55;86.46
66722;SHT31;53633;49.932;10.884;2023-02-03T12:21:44;7.59;86.15
66722;SHT31;53633;49.932;10.884;2023-02-03T12:24:22;7.57;86.44
66722;SHT31;53633;49.932;10.884;2023-02-03T12:27:01;7.55;86.74
66722;SHT31;53633;49.932;10.884;2023-02-03T12:29:35;7.57;86.32
66722;SHT31;53633;49.932;10.884;2023-02-03T12:32:11;7.65;86.21
66722;SHT31;53633;49.932;10.884;2023-02-03T12:34:43;7.65;86.25
66722;SHT31;53633;49.932;10.884;2023-02-03T12:37:16;7.64;85.98
66722;SHT31;53633;49.932;10.884;2023-02-03T12:39:51;7.62;86.54
66722;SHT31;53633;49.932;10.884;2023-02-03T12:42:21;7.66;86.41
66722;SHT31;53633;49.932;10.884;2023-02-03T12:44:54;7.64;86.73
66722;SHT31;53633;49.932;10.884;2023-02-03T12:47:28;7.64;86.76
66722;SHT31;53633;49.932;10.884;2023-02-03T12:49:58;7.64;86.79
66722;SHT31;53633;49.932;10.884;2023-02-03T12:52:32;7.68;86.75
66722;SHT31;53633;49.932;10.884;2023-02-03T12:55:19;7.66;86.84
66722;SHT31;53633;49.932;10.884;2023-02-03T12:57:50;7.66;86.75
66722;SHT31;53633;49.932;10.884;2023-02-03T13:00:25;7.74;86.94
66722;SHT31;53633;49.932;10.884;2023-02-03T13:03:02;7.71;87.01
66722;SHT31;53633;49.932;10.884;2023-02-03T13:05:37;7.69;87.52
66722;SHT31;53633;49.932;10.884;2023-02-03T13:08:13;7.68;87.50
66722;SHT31;53633;49.932;10.884;2023-02-03T13:10:45;7.69;87.51
66722;SHT31;53633;49.932;10.884;2023-02-03T13:13:16;7.69;87.46
66722;SHT31;53633;49.932;10.884;2023-02-03T13:15:48;7.69;87.37
66722;SHT31;53633;49.932;10.884;2023-02-03T13:18:22;7.69;87.45
66722;SHT31;53633;49.932;10.884;2023-02-03T13:20:49;7.71;87.73
66722;SHT31;53633;49.932;10.884;2023-02-03T13:23:16;7.68;88.16
66722;SHT31;53633;49.932;10.884;2023-02-03T13:28:45;7.65;88.33
66722;SHT31;53633;49.932;10.884;2023-02-03T13:31:24;7.71;88.30
66722;SHT31;53633;49.932;10.884;2023-02-03T13:34:11;7.71;88.40
66722;SHT31;53633;49.932;10.884;2023-02-03T13:39:51;7.66;88.71
66722;SHT31;53633;49.932;10.884;2023-02-03T13:42:23;7.68;88.80
66722;SHT31;53633;49.932;10.884;2023-02-03T13:44:53;7.71;88.80
66722;SHT31;53633;49.932;10.884;2023-02-03T13:47:23;7.65;89.11
66722;SHT31;53633;49.932;10.884;2023-02-03T13:49:54;7.65;89.26
66722;SHT31;53633;49.932;10.884;2023-02-03T13:52:23;7.65;89.51
66722;SHT31;53633;49.932;10.884;2023-02-03T13:54:51;7.65;89.79
66722;SHT31;53633;49.932;10.884;2023-02-03T13:57:21;7.59;90.04
66722;SHT31;53633;49.932;10.884;2023-02-03T13:59:50;7.58;90.25
66722;SHT31;53633;49.932;10.884;2023-02-03T14:02:52;7.54;90.02
66722;SHT31;53633;49.932;10.884;2023-02-03T14:05:42;7.54;90.32
66722;SHT31;53633;49.932;10.884;2023-02-03T14:11:43;7.52;90.96
66722;SHT31;53633;49.932;10.884;2023-02-03T14:14:44;7.55;91.14
66722;SHT31;53633;49.932;10.884;2023-02-03T14:23:58;7.47;92.14
66722;SHT31;53633;49.932;10.884;2023-02-03T14:26:37;7.50;92.26
66722;SHT31;53633;49.932;10.884;2023-02-03T14:29:05;7.52;92.16
66722;SHT31;53633;49.932;10.884;2023-02-03T14:31:52;7.48;91.99
66722;SHT31;53633;49.932;10.884;2023-02-03T14:34:28;7.41;91.92
66722;SHT31;53633;49.932;10.884;2023-02-03T14:36:56;7.41;91.93
66722;SHT31;53633;49.932;10.884;2023-02-03T14:40:00;7.43;92.17
66722;SHT31;53633;49.932;10.884;2023-02-03T14:42:47;7.44;92.30
66722;SHT31;53633;49.932;10.884;2023-02-03T14:45:47;7.45;92.60
66722;SHT31;53633;49.932;10.884;2023-02-03T14:48:36;7.47;92.56
66722;SHT31;53633;49.932;10.884;2023-02-03T14:51:13;7.52;92.49
66722;SHT31;53633;49.932;10.884;2023-02-03T14:53:58;7.48;92.78
66722;SHT31;53633;49.932;10.884;2023-02-03T14:56:37;7.41;93.42
66722;SHT31;53633;49.932;10.884;2023-02-03T14:59:09;7.44;93.46
66722;SHT31;53633;49.932;10.884;2023-02-03T15:07:58;7.38;94.13
66722;SHT31;53633;49.932;10.884;2023-02-03T15:10:28;7.32;94.24
66722;SHT31;53633;49.932;10.884;2023-02-03T15:12:56;7.32;94.38
66722;SHT31;53633;49.932;10.884;2023-02-03T15:15:25;7.38;94.09
66722;SHT31;53633;49.932;10.884;2023-02-03T15:17:54;7.38;94.29
66722;SHT31;53633;49.932;10.884;2023-02-03T15:20:34;7.40;94.09
66722;SHT31;53633;49.932;10.884;2023-02-03T15:23:01;7.40;94.22
66722;SHT31;53633;49.932;10.884;2023-02-03T15:25:29;7.35;94.47
66722;SHT31;53633;49.932;10.884;2023-02-03T15:28:12;7.41;94.32
66722;SHT31;53633;49.932;10.884;2023-02-03T15:30:39;7.34;94.54
66722;SHT31;53633;49.932;10.884;2023-02-03T15:33:11;7.41;94.32
66722;SHT31;53633;49.932;10.884;2023-02-03T15:35:43;7.44;94.18
66722;SHT31;53633;49.932;10.884;2023-02-03T15:38:12;7.44;94.11
66722;SHT31;53633;49.932;10.884;2023-02-03T15:40:43;7.47;94.02
66722;SHT31;53633;49.932;10.884;2023-02-03T15:43:15;7.47;93.98
66722;SHT31;53633;49.932;10.884;2023-02-03T15:45:52;7.51;93.79
66722;SHT31;53633;49.932;10.884;2023-02-03T15:48:29;7.51;93.79
66722;SHT31;53633;49.932;10.884;2023-02-03T15:51:03;7.50;93.95
66722;SHT31;53633;49.932;10.884;2023-02-03T15:53:35;7.54;93.84
66722;SHT31;53633;49.932;10.884;2023-02-03T15:56:19;7.47;93.94
66722;SHT31;53633;49.932;10.884;2023-02-03T15:58:47;7.50;93.98
66722;SHT31;53633;49.932;10.884;2023-02-03T16:01:19;7.48;93.74
66722;SHT31;53633;49.932;10.884;2023-02-03T16:03:48;7.50;93.82
66722;SHT31;53633;49.932;10.884;2023-02-03T16:06:20;7.48;93.68
66722;SHT31;53633;49.932;10.884;2023-02-03T16:08:50;7.50;93.71
66722;SHT31;53633;49.932;10.884;2023-02-03T16:11:36;7.50;93.84
66722;SHT31;53633;49.932;10.884;2023-02-03T16:14:04;7.55;93.58
66722;SHT31;53633;49.932;10.884;2023-02-03T16:16:35;7.57;93.42
66722;SHT31;53633;49.932;10.884;2023-02-03T16:19:03;7.59;93.33
66722;SHT31;53633;49.932;10.884;2023-02-03T16:21:33;7.57;93.34